sensor_id;sensor_type;location;lat;lon;timestamp;pressure;altitude;pressure_sealevel;temperature;humidity
85224;BME280;75619;51.316;4.824;2024-02-26T00:01:00;99540.50;;;6.17;100.00
85224;BME280;75619;51.316;4.824;2024-02-26T00:03:26;99531.31;;;6.12;100.00
85224;BME280;75619;51.316;4.824;2024-02-26T00:05:51;99535.97;;;6.08;100.00
85224;BME280;75619;51.316;4.824;2024-02-26T00:08:17;99532.25;;;6.00;100.00
85224;BME280;75619;51.316;4.824;2024-02-26T00:10:43;99528.19;;;6.07;100.00
85224;BME280;75619;51.316;4.824;2024-02-26T00:13:08;99524.13;;;6.03;100.00
85224;BME280;75619;51.316;4.824;2024-02-26T00:15:34;99523.56;;;5.99;100.00
85224;BME280;75619;51.316;4.824;2024-02-26T00:18:01;99527.72;;;6.02;100.00
85224;BME280;75619;51.316;4.824;2024-02-26T00:20:26;99526.19;;;5.99;100.00
85224;BME280;75619;51.316;4.824;2024-02-26T00:22:52;99522.72;;;5.99;100.00
85224;BME280;75619;51.316;4.824;2024-02-26T00:25:17;99521.63;;;5.90;100.00
85224;BME280;75619;51.316;4.824;2024-02-26T00:27:43;99524.75;;;5.95;100.00
85224;BME280;75619;51.316;4.824;2024-02-26T00:30:09;99530.91;;;5.94;100.00
85224;BME280;75619;51.316;4.824;2024-02-26T00:32:35;99523.06;;;5.94;100.00
85224;BME280;75619;51.316;4.824;2024-02-26T00:35:01;99521.25;;;5.84;100.00
85224;BME280;75619;51.316;4.824;2024-02-26T00:37:26;99526.16;;;5.88;100.00
85224;BME280;75619;51.316;4.824;2024-02-26T00:39:52;99530.97;;;5.82;100.00
85224;BME280;75619;51.316;4.824;2024-02-26T00:42:19;99532.16;;;5.78;100.00
85224;BME280;75619;51.316;4.824;2024-02-26T00:44:45;99531.81;;;5.71;100.00
85224;BME280;75619;51.316;4.824;2024-02-26T00:47:10;99529.91;;;5.73;100.00
85224;BME280;75619;51.316;4.824;2024-02-26T00:49:37;99530.72;;;5.73;100.00
85224;BME280;75619;51.316;4.824;2024-02-26T00:52:02;99532.03;;;5.68;100.00
85224;BME280;75619;51.316;4.824;2024-02-26T00:54:28;99531.19;;;5.67;100.00
85224;BME280;75619;51.316;4.824;2024-02-26T00:56:54;99530.94;;;5.59;100.00
85224;BME280;75619;51.316;4.824;2024-02-26T00:59:19;99524.03;;;5.58;100.00
85224;BME280;75619;51.316;4.824;2024-02-26T01:01:45;99532.97;;;5.56;100.00
85224;BME280;75619;51.316;4.824;2024-02-26T01:04:11;99537.50;;;5.54;100.00
85224;BME280;75619;51.316;4.824;2024-02-26T01:06:37;99538.19;;;5.56;100.00
85224;BME280;75619;51.316;4.824;2024-02-26T01:09:02;99548.44;;;5.48;100.00
85224;BME280;75619;51.316;4.824;2024-02-26T01:11:28;99548.44;;;5.59;100.00
85224;BME280;75619;51.316;4.824;2024-02-26T01:13:54;99547.72;;;5.57;100.00
85224;BME280;75619;51.316;4.824;2024-02-26T01:16:23;99546.41;;;5.51;100.00
85224;BME280;75619;51.316;4.824;2024-02-26T01:18:48;99556.44;;;5.57;100.00
85224;BME280;75619;51.316;4.824;2024-02-26T01:21:14;99559.00;;;5.46;100.00
85224;BME280;75619;51.316;4.824;2024-02-26T01:23:40;99552.31;;;5.42;100.00
85224;BME280;75619;51.316;4.824;2024-02-26T01:26:05;99554.13;;;5.42;100.00
85224;BME280;75619;51.316;4.824;2024-02-26T01:28:31;99562.59;;;5.45;100.00
85224;BME280;75619;51.316;4.824;2024-02-26T01:30:57;99563.66;;;5.43;100.00
85224;BME280;75619;51.316;4.824;2024-02-26T01:33:25;99566.84;;;5.35;100.00
85224;BME280;75619;51.316;4.824;2024-02-26T01:35:51;99569.91;;;5.29;100.00
85224;BME280;75619;51.316;4.824;2024-02-26T01:38:18;99573.25;;;5.31;100.00
85224;BME280;75619;51.316;4.824;2024-02-26T01:40:44;99576.47;;;5.35;100.00
85224;BME280;75619;51.316;4.824;2024-02-26T01:43:09;99568.81;;;5.32;100.00
85224;BME280;75619;51.316;4.824;2024-02-26T01:45:35;99570.44;;;5.22;100.00
85224;BME280;75619;51.316;4.824;2024-02-26T01:48:00;99574.25;;;5.18;100.00
85224;BME280;75619;51.316;4.824;2024-02-26T01:50:26;99567.09;;;5.20;100.00
85224;BME280;75619;51.316;4.824;2024-02-26T01:52:53;99556.59;;;5.09;100.00
85224;BME280;75619;51.316;4.824;2024-02-26T01:55:19;99553.00;;;5.10;100.00
85224;BME280;75619;51.316;4.824;2024-02-26T01:57:45;99558.38;;;5.08;100.00
85224;BME280;75619;51.316;4.824;2024-02-26T02:00:13;99563.09;;;5.03;100.00
85224;BME280;75619;51.316;4.824;2024-02-26T02:02:39;99569.03;;;5.05;100.00
85224;BME280;75619;51.316;4.824;2024-02-26T02:05:07;99561.53;;;5.01;100.00
85224;BME280;75619;51.316;4.824;2024-02-26T02:07:34;99555.34;;;5.02;100.00
85224;BME280;75619;51.316;4.824;2024-02-26T02:10:00;99551.88;;;5.01;100.00
85224;BME280;75619;51.316;4.824;2024-02-26T02:12:26;99559.84;;;5.00;100.00
85224;BME280;75619;51.316;4.824;2024-02-26T02:14:52;99567.50;;;5.03;100.00
85224;BME280;75619;51.316;4.824;2024-02-26T02:17:18;99568.69;;;4.99;100.00
85224;BME280;75619;51.316;4.824;2024-02-26T02:19:44;99576.53;;;4.99;100.00
85224;BME280;75619;51.316;4.824;2024-02-26T02:22:09;99577.59;;;4.96;100.00
85224;BME280;75619;51.316;4.824;2024-02-26T02:24:35;99576.00;;;4.93;100.00
85224;BME280;75619;51.316;4.824;2024-02-26T02:27:00;99586.38;;;4.95;100.00
85224;BME280;75619;51.316;4.824;2024-02-26T02:29:26;99576.22;;;4.90;100.00
85224;BME280;75619;51.316;4.824;2024-02-26T02:31:53;99585.66;;;4.93;100.00
85224;BME280;75619;51.316;4.824;2024-02-26T02:34:19;99581.00;;;4.97;100.00
85224;BME280;75619;51.316;4.824;2024-02-26T02:36:53;99585.66;;;4.93;100.00
85224;BME280;75619;51.316;4.824;2024-02-26T02:39:19;99575.44;;;5.01;100.00
85224;BME280;75619;51.316;4.824;2024-02-26T02:41:45;99580.19;;;4.96;100.00
85224;BME280;75619;51.316;4.824;2024-02-26T02:44:11;99587.81;;;4.99;100.00
85224;BME280;75619;51.316;4.824;2024-02-26T02:46:37;99593.38;;;4.94;100.00
85224;BME280;75619;51.316;4.824;2024-02-26T02:49:02;99595.28;;;4.92;100.00
85224;BME280;75619;51.316;4.824;2024-02-26T02:51:27;99589.84;;;4.96;100.00
85224;BME280;75619;51.316;4.824;2024-02-26T02:53:53;99591.41;;;4.98;100.00
85224;BME280;75619;51.316;4.824;2024-02-26T02:56:21;99592.44;;;4.96;100.00
85224;BME280;75619;51.316;4.824;2024-02-26T02:58:47;99594.34;;;4.93;100.00
85224;BME280;75619;51.316;4.824;2024-02-26T03:01:13;99588.88;;;4.97;100.00
85224;BME280;75619;51.316;4.824;2024-02-26T03:03:38;99603.78;;;4.96;100.00
85224;BME280;75619;51.316;4.824;2024-02-26T03:06:04;99599.69;;;4.92;100.00
85224;BME280;75619;51.316;4.824;2024-02-26T03:08:29;99596.63;;;4.98;100.00
85224;BME280;75619;51.316;4.824;2024-02-26T03:10:55;99597.88;;;4.92;100.00
85224;BME280;75619;51.316;4.824;2024-02-26T03:13:20;99593.38;;;4.94;100.00
85224;BME280;75619;51.316;4.824;2024-02-26T03:15:46;99596.72;;;4.97;100.00
85224;BME280;75619;51.316;4.824;2024-02-26T03:18:11;99599.47;;;4.95;100.00
85224;BME280;75619;51.316;4.824;2024-02-26T03:20:37;99593.38;;;4.94;100.00
85224;BME280;75619;51.316;4.824;2024-02-26T03:23:02;99604.69;;;4.95;100.00
85224;BME280;75619;51.316;4.824;2024-02-26T03:25:28;99599.34;;;4.97;100.00
85224;BME280;75619;51.316;4.824;2024-02-26T03:27:53;99598.41;;;4.98;100.00
85224;BME280;75619;51.316;4.824;2024-02-26T03:30:19;99601.25;;;4.94;100.00
85224;BME280;75619;51.316;4.824;2024-02-26T03:32:44;99599.25;;;4.98;100.00
85224;BME280;75619;51.316;4.824;2024-02-26T03:35:10;99598.53;;;4.96;100.00
85224;BME280;75619;51.316;4.824;2024-02-26T03:37:36;99607.59;;;5.03;100.00
85224;BME280;75619;51.316;4.824;2024-02-26T03:40:01;99610.66;;;4.97;100.00
85224;BME280;75619;51.316;4.824;2024-02-26T03:42:27;99611.63;;;4.96;100.00
85224;BME280;75619;51.316;4.824;2024-02-26T03:44:52;99615.91;;;4.97;100.00
85224;BME280;75619;51.316;4.824;2024-02-26T03:47:18;99606.38;;;4.96;100.00
85224;BME280;75619;51.316;4.824;2024-02-26T03:49:43;99618.44;;;4.99;100.00
85224;BME280;75619;51.316;4.824;2024-02-26T03:52:08;99613.19;;;4.99;100.00
85224;BME280;75619;51.316;4.824;2024-02-26T03:54:34;99614.66;;;5.03;100.00
85224;BME280;75619;51.316;4.824;2024-02-26T03:56:59;99620.94;;;5.00;100.00
85224;BME280;75619;51.316;4.824;2024-02-26T03:59:25;99615.47;;;5.03;100.00
85224;BME280;75619;51.316;4.824;2024-02-26T04:01:51;99622.72;;;5.00;100.00
85224;BME280;75619;51.316;4.824;2024-02-26T04:04:17;99618.53;;;4.97;100.00
85224;BME280;75619;51.316;4.824;2024-02-26T04:06:46;99618.53;;;4.97;100.00
85224;BME280;75619;51.316;4.824;2024-02-26T04:09:13;99631.94;;;4.92;100.00
85224;BME280;75619;51.316;4.824;2024-02-26T04:11:38;99628.59;;;4.90;100.00
85224;BME280;75619;51.316;4.824;2024-02-26T04:14:04;99631.13;;;4.92;100.00
85224;BME280;75619;51.316;4.824;2024-02-26T04:16:31;99633.81;;;4.90;100.00
85224;BME280;75619;51.316;4.824;2024-02-26T04:18:56;99630.47;;;4.88;100.00
85224;BME280;75619;51.316;4.824;2024-02-26T04:21:22;99639.41;;;4.86;100.00
85224;BME280;75619;51.316;4.824;2024-02-26T04:23:47;99631.22;;;4.78;100.00
85224;BME280;75619;51.316;4.824;2024-02-26T04:26:14;99641.81;;;4.76;100.00
85224;BME280;75619;51.316;4.824;2024-02-26T04:28:39;99639.19;;;4.76;100.00
85224;BME280;75619;51.316;4.824;2024-02-26T04:31:05;99638.28;;;4.77;100.00
85224;BME280;75619;51.316;4.824;2024-02-26T04:33:33;99644.75;;;4.72;100.00
85224;BME280;75619;51.316;4.824;2024-02-26T04:35:58;99645.81;;;4.69;100.00
85224;BME280;75619;51.316;4.824;2024-02-26T04:38:24;99644.75;;;4.72;100.00
85224;BME280;75619;51.316;4.824;2024-02-26T04:40:49;99640.59;;;4.69;100.00
85224;BME280;75619;51.316;4.824;2024-02-26T04:43:15;99644.13;;;4.68;100.00
85224;BME280;75619;51.316;4.824;2024-02-26T04:45:41;99657.94;;;4.70;100.00
85224;BME280;75619;51.316;4.824;2024-02-26T04:48:06;99663.41;;;4.67;100.00
85224;BME280;75619;51.316;4.824;2024-02-26T04:50:31;99656.38;;;4.68;100.00
85224;BME280;75619;51.316;4.824;2024-02-26T04:52:57;99658.06;;;4.69;100.00
85224;BME280;75619;51.316;4.824;2024-02-26T04:55:22;99653.75;;;4.68;100.00
85224;BME280;75619;51.316;4.824;2024-02-26T04:57:48;99666.75;;;4.69;100.00
85224;BME280;75619;51.316;4.824;2024-02-26T05:00:13;99657.75;;;4.73;100.00
85224;BME280;75619;51.316;4.824;2024-02-26T05:02:39;99657.53;;;4.76;100.00
85224;BME280;75619;51.316;4.824;2024-02-26T05:05:05;99661.28;;;4.72;100.00
85224;BME280;75619;51.316;4.824;2024-02-26T05:07:31;99666.53;;;4.72;100.00
85224;BME280;75619;51.316;4.824;2024-02-26T05:09:56;99666.53;;;4.72;100.00
85224;BME280;75619;51.316;4.824;2024-02-26T05:12:22;99671.88;;;4.71;100.00
85224;BME280;75619;51.316;4.824;2024-02-26T05:14:47;99666.75;;;4.69;100.00
85224;BME280;75619;51.316;4.824;2024-02-26T05:17:12;99673.88;;;4.67;100.00
85224;BME280;75619;51.316;4.824;2024-02-26T05:19:38;99661.53;;;4.69;100.00
85224;BME280;75619;51.316;4.824;2024-02-26T05:22:03;99689.34;;;4.70;100.00
85224;BME280;75619;51.316;4.824;2024-02-26T05:24:29;99683.41;;;4.68;100.00
85224;BME280;75619;51.316;4.824;2024-02-26T05:26:54;99693.97;;;4.67;100.00
85224;BME280;75619;51.316;4.824;2024-02-26T05:29:22;99686.84;;;4.69;100.00
85224;BME280;75619;51.316;4.824;2024-02-26T05:31:48;99688.63;;;4.68;100.00
85224;BME280;75619;51.316;4.824;2024-02-26T05:34:13;99694.59;;;4.70;100.00
85224;BME280;75619;51.316;4.824;2024-02-26T05:36:39;99700.06;;;4.67;100.00
85224;BME280;75619;51.316;4.824;2024-02-26T05:39:04;99701.72;;;4.68;100.00
85224;BME280;75619;51.316;4.824;2024-02-26T05:41:29;99707.56;;;4.72;100.00
85224;BME280;75619;51.316;4.824;2024-02-26T05:43:55;99712.59;;;4.75;100.00
85224;BME280;75619;51.316;4.824;2024-02-26T05:46:20;99713.53;;;4.74;100.00
85224;BME280;75619;51.316;4.824;2024-02-26T05:48:51;99710.31;;;4.70;100.00
85224;BME280;75619;51.316;4.824;2024-02-26T05:51:16;99712.19;;;4.68;100.00
85224;BME280;75619;51.316;4.824;2024-02-26T05:53:42;99723.63;;;4.67;100.00
85224;BME280;75619;51.316;4.824;2024-02-26T05:56:08;99727.78;;;4.70;100.00
85224;BME280;75619;51.316;4.824;2024-02-26T05:58:33;99731.47;;;4.67;100.00
85224;BME280;75619;51.316;4.824;2024-02-26T06:00:58;99731.56;;;4.66;100.00
85224;BME280;75619;51.316;4.824;2024-02-26T06:03:25;99742.97;;;4.65;100.00
85224;BME280;75619;51.316;4.824;2024-02-26T06:05:50;99742.88;;;4.66;100.00
85224;BME280;75619;51.316;4.824;2024-02-26T06:08:16;99734.50;;;4.61;100.00
85224;BME280;75619;51.316;4.824;2024-02-26T06:10:41;99754.69;;;4.59;100.00
85224;BME280;75619;51.316;4.824;2024-02-26T06:13:06;99760.97;;;4.57;100.00
85224;BME280;75619;51.316;4.824;2024-02-26T06:15:32;99760.97;;;4.57;100.00
85224;BME280;75619;51.316;4.824;2024-02-26T06:17:57;99758.25;;;4.58;100.00
85224;BME280;75619;51.316;4.824;2024-02-26T06:20:23;99765.16;;;4.59;100.00
85224;BME280;75619;51.316;4.824;2024-02-26T06:22:48;99765.38;;;4.56;100.00
85224;BME280;75619;51.316;4.824;2024-02-26T06:25:13;99770.59;;;4.56;100.00
85224;BME280;75619;51.316;4.824;2024-02-26T06:27:39;99775.09;;;4.54;100.00
85224;BME280;75619;51.316;4.824;2024-02-26T06:30:05;99777.91;;;4.51;100.00
85224;BME280;75619;51.316;4.824;2024-02-26T06:32:32;99776.25;;;4.50;100.00
85224;BME280;75619;51.316;4.824;2024-02-26T06:34:58;99774.38;;;4.52;100.00
85224;BME280;75619;51.316;4.824;2024-02-26T06:37:23;99784.84;;;4.52;100.00
85224;BME280;75619;51.316;4.824;2024-02-26T06:39:49;99790.81;;;4.54;100.00
85224;BME280;75619;51.316;4.824;2024-02-26T06:42:14;99804.06;;;4.51;100.00
85224;BME280;75619;51.316;4.824;2024-02-26T06:44:39;99796.97;;;4.53;100.00
85224;BME280;75619;51.316;4.824;2024-02-26T06:47:05;99791.72;;;4.53;100.00
85224;BME280;75619;51.316;4.824;2024-02-26T06:49:30;99803.25;;;4.51;100.00
85224;BME280;75619;51.316;4.824;2024-02-26T06:51:56;99797.19;;;4.50;100.00
85224;BME280;75619;51.316;4.824;2024-02-26T06:54:21;99808.38;;;4.52;100.00
85224;BME280;75619;51.316;4.824;2024-02-26T06:56:47;99810.16;;;4.52;100.00
85224;BME280;75619;51.316;4.824;2024-02-26T06:59:12;99812.03;;;4.50;100.00
85224;BME280;75619;51.316;4.824;2024-02-26T07:01:40;99811.13;;;4.51;100.00
85224;BME280;75619;51.316;4.824;2024-02-26T07:04:05;99811.94;;;4.51;100.00
85224;BME280;75619;51.316;4.824;2024-02-26T07:06:30;99807.66;;;4.50;100.00
85224;BME280;75619;51.316;4.824;2024-02-26T07:08:56;99812.88;;;4.50;100.00
85224;BME280;75619;51.316;4.824;2024-02-26T07:11:21;99816.25;;;4.52;100.00
85224;BME280;75619;51.316;4.824;2024-02-26T07:13:47;99824.09;;;4.52;100.00
85224;BME280;75619;51.316;4.824;2024-02-26T07:16:12;99838.75;;;4.55;100.00
85224;BME280;75619;51.316;4.824;2024-02-26T07:18:39;99837.16;;;4.52;100.00
85224;BME280;75619;51.316;4.824;2024-02-26T07:21:04;99841.56;;;4.52;100.00
85224;BME280;75619;51.316;4.824;2024-02-26T07:23:31;99832.69;;;4.54;100.00
85224;BME280;75619;51.316;4.824;2024-02-26T07:25:56;99844.06;;;4.53;100.00
85224;BME280;75619;51.316;4.824;2024-02-26T07:28:22;99843.88;;;4.56;100.00
85224;BME280;75619;51.316;4.824;2024-02-26T07:30:47;99850.38;;;4.51;100.00
85224;BME280;75619;51.316;4.824;2024-02-26T07:33:12;99856.41;;;4.51;100.00
85224;BME280;75619;51.316;4.824;2024-02-26T07:35:38;99856.41;;;4.51;100.00
85224;BME280;75619;51.316;4.824;2024-02-26T07:38:04;99858.84;;;4.54;100.00
85224;BME280;75619;51.316;4.824;2024-02-26T07:40:29;99867.72;;;4.52;100.00
85224;BME280;75619;51.316;4.824;2024-02-26T07:42:55;99879.16;;;4.51;100.00
85224;BME280;75619;51.316;4.824;2024-02-26T07:45:21;99872.97;;;4.52;100.00
85224;BME280;75619;51.316;4.824;2024-02-26T07:47:46;99879.88;;;4.53;100.00
85224;BME280;75619;51.316;4.824;2024-02-26T07:50:12;99886.78;;;4.54;100.00
85224;BME280;75619;51.316;4.824;2024-02-26T07:52:37;99883.31;;;4.53;100.00
85224;BME280;75619;51.316;4.824;2024-02-26T07:55:03;99883.69;;;4.61;100.00
85224;BME280;75619;51.316;4.824;2024-02-26T07:57:28;99889.50;;;4.52;100.00
85224;BME280;75619;51.316;4.824;2024-02-26T07:59:54;99892.88;;;4.54;100.00
85224;BME280;75619;51.316;4.824;2024-02-26T08:02:20;99898.72;;;4.58;100.00
85224;BME280;75619;51.316;4.824;2024-02-26T08:04:46;99897.88;;;4.57;100.00
85224;BME280;75619;51.316;4.824;2024-02-26T08:07:11;99915.09;;;4.61;100.00
85224;BME280;75619;51.316;4.824;2024-02-26T08:09:37;99918.00;;;4.57;100.00
85224;BME280;75619;51.316;4.824;2024-02-26T08:12:02;99924.91;;;4.58;100.00
85224;BME280;75619;51.316;4.824;2024-02-26T08:14:28;99927.41;;;4.59;100.00
85224;BME280;75619;51.316;4.824;2024-02-26T08:16:53;99927.00;;;4.53;100.00
85224;BME280;75619;51.316;4.824;2024-02-26T08:19:19;99930.75;;;4.49;100.00
85224;BME280;75619;51.316;4.824;2024-02-26T08:21:44;99938.59;;;4.49;100.00
85224;BME280;75619;51.316;4.824;2024-02-26T08:24:09;99938.78;;;4.46;100.00
85224;BME280;75619;51.316;4.824;2024-02-26T08:26:35;99940.47;;;4.47;100.00
85224;BME280;75619;51.316;4.824;2024-02-26T08:29:00;99943.00;;;4.48;100.00
85224;BME280;75619;51.316;4.824;2024-02-26T08:31:26;99943.84;;;4.49;100.00
85224;BME280;75619;51.316;4.824;2024-02-26T08:33:52;99952.59;;;4.48;100.00
85224;BME280;75619;51.316;4.824;2024-02-26T08:36:18;99948.97;;;4.50;100.00
85224;BME280;75619;51.316;4.824;2024-02-26T08:38:43;99961.03;;;4.53;100.00
85224;BME280;75619;51.316;4.824;2024-02-26T08:41:09;99962.78;;;4.52;100.00
85224;BME280;75619;51.316;4.824;2024-02-26T08:43:35;99961.31;;;4.48;100.00
85224;BME280;75619;51.316;4.824;2024-02-26T08:46:01;99970.28;;;4.44;100.00
85224;BME280;75619;51.316;4.824;2024-02-26T08:48:26;99973.81;;;4.43;100.00
85224;BME280;75619;51.316;4.824;2024-02-26T08:50:52;99976.78;;;4.51;100.00
85224;BME280;75619;51.316;4.824;2024-02-26T08:53:17;99970.06;;;4.47;100.00
85224;BME280;75619;51.316;4.824;2024-02-26T08:55:43;99977.13;;;4.47;100.00
85224;BME280;75619;51.316;4.824;2024-02-26T08:58:08;99985.78;;;4.47;100.00
85224;BME280;75619;51.316;4.824;2024-02-26T09:00:34;99987.47;;;4.48;100.00
85224;BME280;75619;51.316;4.824;2024-02-26T09:02:59;99992.88;;;4.45;100.00
85224;BME280;75619;51.316;4.824;2024-02-26T09:05:25;99990.38;;;4.44;100.00
85224;BME280;75619;51.316;4.824;2024-02-26T09:07:50;100007.56;;;4.48;100.00
85224;BME280;75619;51.316;4.824;2024-02-26T09:10:17;100005.06;;;4.46;100.00
85224;BME280;75619;51.316;4.824;2024-02-26T09:12:42;100009.53;;;4.44;100.00
85224;BME280;75619;51.316;4.824;2024-02-26T09:15:08;100014.66;;;4.46;100.00
85224;BME280;75619;51.316;4.824;2024-02-26T09:17:33;100018.03;;;4.48;100.00
85224;BME280;75619;51.316;4.824;2024-02-26T09:19:59;100019.78;;;4.47;100.00
85224;BME280;75619;51.316;4.824;2024-02-26T09:22:25;100018.66;;;4.51;100.00
85224;BME280;75619;51.316;4.824;2024-02-26T09:24:50;100033.72;;;4.48;100.00
85224;BME280;75619;51.316;4.824;2024-02-26T09:27:17;100030.25;;;4.47;100.00
85224;BME280;75619;51.316;4.824;2024-02-26T09:29:43;100035.72;;;4.44;100.00
85224;BME280;75619;51.316;4.824;2024-02-26T09:32:08;100038.31;;;4.44;100.00
85224;BME280;75619;51.316;4.824;2024-02-26T09:34:34;100037.19;;;4.48;100.00
85224;BME280;75619;51.316;4.824;2024-02-26T09:36:59;100033.72;;;4.48;100.00
85224;BME280;75619;51.316;4.824;2024-02-26T09:39:26;100042.44;;;4.48;100.00
85224;BME280;75619;51.316;4.824;2024-02-26T09:41:53;100048.50;;;4.49;100.00
85224;BME280;75619;51.316;4.824;2024-02-26T09:44:19;100058.59;;;4.55;100.00
85224;BME280;75619;51.316;4.824;2024-02-26T09:46:47;100063.38;;;4.48;100.00
85224;BME280;75619;51.316;4.824;2024-02-26T09:49:15;100060.38;;;4.54;100.00
85224;BME280;75619;51.316;4.824;2024-02-26T09:51:40;100062.25;;;4.52;100.00
85224;BME280;75619;51.316;4.824;2024-02-26T09:54:07;100063.09;;;4.53;100.00
85224;BME280;75619;51.316;4.824;2024-02-26T09:56:32;100069.06;;;4.55;100.00
85224;BME280;75619;51.316;4.824;2024-02-26T09:58:58;100079.44;;;4.56;100.00
85224;BME280;75619;51.316;4.824;2024-02-26T10:01:25;100072.31;;;4.58;100.00
85224;BME280;75619;51.316;4.824;2024-02-26T10:03:55;100089.50;;;4.62;100.00
85224;BME280;75619;51.316;4.824;2024-02-26T10:06:22;100088.59;;;4.63;100.00
85224;BME280;75619;51.316;4.824;2024-02-26T10:08:47;100089.63;;;4.61;100.00
85224;BME280;75619;51.316;4.824;2024-02-26T10:11:13;100096.78;;;4.57;100.00
85224;BME280;75619;51.316;4.824;2024-02-26T10:13:40;100106.34;;;4.58;100.00
85224;BME280;75619;51.316;4.824;2024-02-26T10:16:06;100104.66;;;4.57;100.00
85224;BME280;75619;51.316;4.824;2024-02-26T10:21:13;100113.34;;;4.58;100.00
85224;BME280;75619;51.316;4.824;2024-02-26T10:23:39;100110.63;;;4.59;100.00
85224;BME280;75619;51.316;4.824;2024-02-26T10:26:04;100122.81;;;4.60;100.00
85224;BME280;75619;51.316;4.824;2024-02-26T10:28:30;100123.72;;;4.59;100.00
85224;BME280;75619;51.316;4.824;2024-02-26T10:30:55;100127.13;;;4.61;100.00
85224;BME280;75619;51.316;4.824;2024-02-26T10:33:21;100126.44;;;4.58;100.00
85224;BME280;75619;51.316;4.824;2024-02-26T10:35:47;100128.94;;;4.59;100.00
85224;BME280;75619;51.316;4.824;2024-02-26T10:38:12;100124.41;;;4.63;100.00
85224;BME280;75619;51.316;4.824;2024-02-26T10:40:38;100132.25;;;4.63;100.00
85224;BME280;75619;51.316;4.824;2024-02-26T10:43:04;100133.09;;;4.63;100.00
85224;BME280;75619;51.316;4.824;2024-02-26T10:45:29;100145.06;;;4.67;100.00
85224;BME280;75619;51.316;4.824;2024-02-26T10:47:56;100137.28;;;4.66;100.00
85224;BME280;75619;51.316;4.824;2024-02-26T10:50:22;100145.97;;;4.66;100.00
85224;BME280;75619;51.316;4.824;2024-02-26T10:52:47;100151.03;;;4.69;100.00
85224;BME280;75619;51.316;4.824;2024-02-26T10:55:16;100158.91;;;4.69;100.00
85224;BME280;75619;51.316;4.824;2024-02-26T10:57:45;100173.84;;;4.67;100.00
85224;BME280;75619;51.316;4.824;2024-02-26T11:00:10;100164.31;;;4.66;100.00
85224;BME280;75619;51.316;4.824;2024-02-26T11:02:40;100172.16;;;4.66;100.00
85224;BME280;75619;51.316;4.824;2024-02-26T11:05:05;100171.25;;;4.67;100.00
85224;BME280;75619;51.316;4.824;2024-02-26T11:07:31;100176.47;;;4.67;100.00
85224;BME280;75619;51.316;4.824;2024-02-26T11:09:58;100179.16;;;4.66;100.00
85224;BME280;75619;51.316;4.824;2024-02-26T11:12:24;100188.88;;;4.64;100.00
85224;BME280;75619;51.316;4.824;2024-02-26T11:14:50;100180.28;;;4.62;100.00
85224;BME280;75619;51.316;4.824;2024-02-26T11:17:20;100185.53;;;4.62;100.00
85224;BME280;75619;51.316;4.824;2024-02-26T11:19:46;100190.84;;;4.60;100.00
85224;BME280;75619;51.316;4.824;2024-02-26T11:22:14;100191.88;;;4.58;100.00
85224;BME280;75619;51.316;4.824;2024-02-26T11:24:40;100189.84;;;4.63;100.00
85224;BME280;75619;51.316;4.824;2024-02-26T11:27:08;100197.97;;;4.58;100.00
85224;BME280;75619;51.316;4.824;2024-02-26T11:29:37;100211.91;;;4.59;100.00
85224;BME280;75619;51.316;4.824;2024-02-26T11:32:04;100198.81;;;4.59;100.00
85224;BME280;75619;51.316;4.824;2024-02-26T11:34:30;100203.84;;;4.62;100.00
85224;BME280;75619;51.316;4.824;2024-02-26T11:36:55;100207.31;;;4.62;100.00
85224;BME280;75619;51.316;4.824;2024-02-26T11:39:21;100204.84;;;4.59;100.00
85224;BME280;75619;51.316;4.824;2024-02-26T11:41:47;100214.50;;;4.59;100.00
85224;BME280;75619;51.316;4.824;2024-02-26T11:44:13;100202.16;;;4.61;100.00
85224;BME280;75619;51.316;4.824;2024-02-26T11:46:42;100208.44;;;4.58;100.00
85224;BME280;75619;51.316;4.824;2024-02-26T11:51:52;100222.25;;;4.60;100.00
85224;BME280;75619;51.316;4.824;2024-02-26T11:57:04;100215.63;;;4.55;100.00
85224;BME280;75619;51.316;4.824;2024-02-26T11:59:39;100198.22;;;4.54;100.00
85224;BME280;75619;51.316;4.824;2024-02-26T12:02:06;100221.69;;;4.55;100.00
85224;BME280;75619;51.316;4.824;2024-02-26T12:04:32;100232.00;;;4.58;100.00
85224;BME280;75619;51.316;4.824;2024-02-26T12:07:00;100221.50;;;4.58;100.00
85224;BME280;75619;51.316;4.824;2024-02-26T12:12:02;100239.19;;;4.69;100.00
85224;BME280;75619;51.316;4.824;2024-02-26T12:14:28;100248.06;;;4.66;100.00
85224;BME280;75619;51.316;4.824;2024-02-26T12:16:55;100249.78;;;4.67;100.00
85224;BME280;75619;51.316;4.824;2024-02-26T12:19:20;100252.19;;;4.70;100.00
85224;BME280;75619;51.316;4.824;2024-02-26T12:21:48;100258.28;;;4.71;100.00
85224;BME280;75619;51.316;4.824;2024-02-26T12:24:16;100250.22;;;4.74;100.00
85224;BME280;75619;51.316;4.824;2024-02-26T12:26:43;100252.56;;;4.78;100.00
85224;BME280;75619;51.316;4.824;2024-02-26T12:29:09;100250.91;;;4.77;100.00
85224;BME280;75619;51.316;4.824;2024-02-26T12:31:36;100261.38;;;4.77;100.00
85224;BME280;75619;51.316;4.824;2024-02-26T12:34:05;100270.34;;;4.73;100.00
85224;BME280;75619;51.316;4.824;2024-02-26T12:36:31;100269.50;;;4.73;100.00
85224;BME280;75619;51.316;4.824;2024-02-26T12:38:57;100266.41;;;4.80;100.00
85224;BME280;75619;51.316;4.824;2024-02-26T12:41:23;100277.09;;;4.77;100.00
85224;BME280;75619;51.316;4.824;2024-02-26T12:43:49;100284.00;;;4.78;100.00
85224;BME280;75619;51.316;4.824;2024-02-26T12:46:14;100284.75;;;4.80;100.00
85224;BME280;75619;51.316;4.824;2024-02-26T12:48:42;100291.69;;;4.81;100.00
85224;BME280;75619;51.316;4.824;2024-02-26T12:51:08;100297.09;;;4.78;100.00
85224;BME280;75619;51.316;4.824;2024-02-26T12:53:35;100300.66;;;4.77;100.00
85224;BME280;75619;51.316;4.824;2024-02-26T12:56:01;100310.16;;;4.78;100.00
85224;BME280;75619;51.316;4.824;2024-02-26T12:58:27;100310.38;;;4.75;100.00
85224;BME280;75619;51.316;4.824;2024-02-26T13:00:54;100310.16;;;4.78;100.00